sensor_id;sensor_type;location;lat;lon;timestamp;temperature;humidity
19365;DHT22;9818;48.382;10.850;2023-05-17T00:01:38;14.60;99.90
19365;DHT22;9818;48.382;10.850;2023-05-17T00:04:06;14.70;99.90
19365;DHT22;9818;48.382;10.850;2023-05-17T00:06:35;14.60;99.90
19365;DHT22;9818;48.382;10.850;2023-05-17T00:09:06;14.70;99.90
19365;DHT22;9818;48.382;10.850;2023-05-17T00:11:35;14.60;99.90
19365;DHT22;9818;48.382;10.850;2023-05-17T00:14:04;14.70;99.90
19365;DHT22;9818;48.382;10.850;2023-05-17T00:16:33;14.70;99.90
19365;DHT22;9818;48.382;10.850;2023-05-17T00:19:01;14.60;99.90
19365;DHT22;9818;48.382;10.850;2023-05-17T00:21:30;14.70;99.90
19365;DHT22;9818;48.382;10.850;2023-05-17T00:23:59;14.60;99.90
19365;DHT22;9818;48.382;10.850;2023-05-17T00:26:30;14.60;99.90
19365;DHT22;9818;48.382;10.850;2023-05-17T00:28:59;14.70;99.90
19365;DHT22;9818;48.382;10.850;2023-05-17T00:31:28;14.60;99.90
19365;DHT22;9818;48.382;10.850;2023-05-17T00:33:56;14.60;99.90
19365;DHT22;9818;48.382;10.850;2023-05-17T00:36:25;14.60;99.90
19365;DHT22;9818;48.382;10.850;2023-05-17T00:38:54;14.60;99.90
19365;DHT22;9818;48.382;10.850;2023-05-17T00:41:22;14.60;99.90
19365;DHT22;9818;48.382;10.850;2023-05-17T00:43:53;14.60;99.90
19365;DHT22;9818;48.382;10.850;2023-05-17T00:46:22;14.60;99.90
19365;DHT22;9818;48.382;10.850;2023-05-17T00:48:51;14.60;99.90
19365;DHT22;9818;48.382;10.850;2023-05-17T00:51:20;14.60;99.90
19365;DHT22;9818;48.382;10.850;2023-05-17T00:53:49;14.60;99.90
19365;DHT22;9818;48.382;10.850;2023-05-17T00:56:18;14.60;99.90
19365;DHT22;9818;48.382;10.850;2023-05-17T00:58:46;14.60;99.90
19365;DHT22;9818;48.382;10.850;2023-05-17T01:01:18;14.60;99.90
19365;DHT22;9818;48.382;10.850;2023-05-17T01:03:48;14.60;99.90
19365;DHT22;9818;48.382;10.850;2023-05-17T01:06:17;14.60;99.90
19365;DHT22;9818;48.382;10.850;2023-05-17T01:08:45;14.60;99.90
19365;DHT22;9818;48.382;10.850;2023-05-17T01:11:21;14.60;99.90
19365;DHT22;9818;48.382;10.850;2023-05-17T01:13:57;14.60;99.90
19365;DHT22;9818;48.382;10.850;2023-05-17T01:16:35;14.60;99.90
19365;DHT22;9818;48.382;10.850;2023-05-17T01:19:13;14.60;99.90
19365;DHT22;9818;48.382;10.850;2023-05-17T01:21:57;14.60;99.90
19365;DHT22;9818;48.382;10.850;2023-05-17T01:24:41;14.60;99.90
19365;DHT22;9818;48.382;10.850;2023-05-17T01:27:20;14.60;99.90
19365;DHT22;9818;48.382;10.850;2023-05-17T01:29:49;14.60;99.90
19365;DHT22;9818;48.382;10.850;2023-05-17T01:32:19;14.60;99.90
19365;DHT22;9818;48.382;10.850;2023-05-17T01:34:48;14.60;99.90
19365;DHT22;9818;48.382;10.850;2023-05-17T01:37:17;14.60;99.90
19365;DHT22;9818;48.382;10.850;2023-05-17T01:39:45;14.60;99.90
19365;DHT22;9818;48.382;10.850;2023-05-17T01:42:21;14.60;99.90
19365;DHT22;9818;48.382;10.850;2023-05-17T01:44:54;14.60;99.90
19365;DHT22;9818;48.382;10.850;2023-05-17T01:47:32;14.60;99.90
19365;DHT22;9818;48.382;10.850;2023-05-17T01:50:03;14.60;99.90
19365;DHT22;9818;48.382;10.850;2023-05-17T01:52:37;14.60;99.90
19365;DHT22;9818;48.382;10.850;2023-05-17T01:55:18;14.60;99.90
19365;DHT22;9818;48.382;10.850;2023-05-17T01:57:55;14.60;99.90
19365;DHT22;9818;48.382;10.850;2023-05-17T02:00:24;14.60;99.90
19365;DHT22;9818;48.382;10.850;2023-05-17T02:02:55;14.60;99.90
19365;DHT22;9818;48.382;10.850;2023-05-17T02:05:23;14.60;99.90
19365;DHT22;9818;48.382;10.850;2023-05-17T02:07:52;14.60;99.90
19365;DHT22;9818;48.382;10.850;2023-05-17T02:10:21;14.60;99.90
19365;DHT22;9818;48.382;10.850;2023-05-17T02:12:49;14.60;99.90
19365;DHT22;9818;48.382;10.850;2023-05-17T02:15:21;14.60;99.90
19365;DHT22;9818;48.382;10.850;2023-05-17T02:17:49;14.60;99.90
19365;DHT22;9818;48.382;10.850;2023-05-17T02:20:18;14.60;99.90
19365;DHT22;9818;48.382;10.850;2023-05-17T02:22:47;14.60;99.90
19365;DHT22;9818;48.382;10.850;2023-05-17T02:25:15;14.60;99.90
19365;DHT22;9818;48.382;10.850;2023-05-17T02:27:44;14.60;99.90
19365;DHT22;9818;48.382;10.850;2023-05-17T02:30:13;14.60;99.90
19365;DHT22;9818;48.382;10.850;2023-05-17T02:32:44;14.60;99.90
19365;DHT22;9818;48.382;10.850;2023-05-17T02:35:13;14.60;99.90
19365;DHT22;9818;48.382;10.850;2023-05-17T02:37:41;14.60;99.90
19365;DHT22;9818;48.382;10.850;2023-05-17T02:40:11;14.60;99.90
19365;DHT22;9818;48.382;10.850;2023-05-17T02:42:39;14.60;99.90
19365;DHT22;9818;48.382;10.850;2023-05-17T02:45:09;14.60;99.90
19365;DHT22;9818;48.382;10.850;2023-05-17T02:47:38;14.60;99.90
19365;DHT22;9818;48.382;10.850;2023-05-17T02:50:09;14.60;99.90
19365;DHT22;9818;48.382;10.850;2023-05-17T02:52:38;14.60;99.90
19365;DHT22;9818;48.382;10.850;2023-05-17T02:55:08;14.60;99.90
19365;DHT22;9818;48.382;10.850;2023-05-17T02:57:37;14.60;99.90
19365;DHT22;9818;48.382;10.850;2023-05-17T03:00:07;14.60;99.90
19365;DHT22;9818;48.382;10.850;2023-05-17T03:02:36;14.60;99.90
19365;DHT22;9818;48.382;10.850;2023-05-17T03:05:05;14.60;99.90
19365;DHT22;9818;48.382;10.850;2023-05-17T03:07:37;14.60;99.90
19365;DHT22;9818;48.382;10.850;2023-05-17T03:10:06;14.60;99.90
19365;DHT22;9818;48.382;10.850;2023-05-17T03:12:35;14.60;99.90
19365;DHT22;9818;48.382;10.850;2023-05-17T03:15:05;14.60;99.90
19365;DHT22;9818;48.382;10.850;2023-05-17T03:17:33;14.60;99.90
19365;DHT22;9818;48.382;10.850;2023-05-17T03:20:02;14.60;99.90
19365;DHT22;9818;48.382;10.850;2023-05-17T03:22:32;14.60;99.90
19365;DHT22;9818;48.382;10.850;2023-05-17T03:25:04;14.60;99.90
19365;DHT22;9818;48.382;10.850;2023-05-17T03:27:33;14.60;99.90
19365;DHT22;9818;48.382;10.850;2023-05-17T03:30:02;14.60;99.90
19365;DHT22;9818;48.382;10.850;2023-05-17T03:32:30;14.60;99.90
19365;DHT22;9818;48.382;10.850;2023-05-17T03:34:59;14.60;99.90
19365;DHT22;9818;48.382;10.850;2023-05-17T03:37:27;14.60;99.90
19365;DHT22;9818;48.382;10.850;2023-05-17T03:39:56;14.60;99.90
19365;DHT22;9818;48.382;10.850;2023-05-17T03:42:27;14.60;99.90
19365;DHT22;9818;48.382;10.850;2023-05-17T03:44:56;14.60;99.90
19365;DHT22;9818;48.382;10.850;2023-05-17T03:47:25;14.50;99.90
19365;DHT22;9818;48.382;10.850;2023-05-17T03:49:54;14.60;99.90
19365;DHT22;9818;48.382;10.850;2023-05-17T03:52:22;14.60;99.90
19365;DHT22;9818;48.382;10.850;2023-05-17T03:54:51;14.60;99.90
19365;DHT22;9818;48.382;10.850;2023-05-17T03:57:20;14.50;99.90
19365;DHT22;9818;48.382;10.850;2023-05-17T03:59:51;14.50;99.90
19365;DHT22;9818;48.382;10.850;2023-05-17T04:02:20;14.50;99.90
19365;DHT22;9818;48.382;10.850;2023-05-17T04:04:49;14.60;99.90
19365;DHT22;9818;48.382;10.850;2023-05-17T04:07:18;14.50;99.90
19365;DHT22;9818;48.382;10.850;2023-05-17T04:09:47;14.60;99.90
19365;DHT22;9818;48.382;10.850;2023-05-17T04:12:15;14.50;99.90
19365;DHT22;9818;48.382;10.850;2023-05-17T04:14:44;14.50;99.90
19365;DHT22;9818;48.382;10.850;2023-05-17T04:17:15;14.50;99.90
19365;DHT22;9818;48.382;10.850;2023-05-17T04:19:44;14.50;99.90
19365;DHT22;9818;48.382;10.850;2023-05-17T04:22:12;14.50;99.90
19365;DHT22;9818;48.382;10.850;2023-05-17T04:24:41;14.50;99.90
19365;DHT22;9818;48.382;10.850;2023-05-17T04:27:10;14.50;99.90
19365;DHT22;9818;48.382;10.850;2023-05-17T04:29:38;14.50;99.90
19365;DHT22;9818;48.382;10.850;2023-05-17T04:32:07;14.50;99.90
19365;DHT22;9818;48.382;10.850;2023-05-17T04:34:39;14.50;99.90
19365;DHT22;9818;48.382;10.850;2023-05-17T04:37:07;14.50;99.90
19365;DHT22;9818;48.382;10.850;2023-05-17T04:39:36;14.50;99.90
19365;DHT22;9818;48.382;10.850;2023-05-17T04:42:05;14.50;99.90
19365;DHT22;9818;48.382;10.850;2023-05-17T04:44:33;14.50;99.90
19365;DHT22;9818;48.382;10.850;2023-05-17T04:47:02;14.50;99.90
19365;DHT22;9818;48.382;10.850;2023-05-17T04:49:31;14.50;99.90
19365;DHT22;9818;48.382;10.850;2023-05-17T04:52:02;14.50;99.90
19365;DHT22;9818;48.382;10.850;2023-05-17T04:54:31;14.50;99.90
19365;DHT22;9818;48.382;10.850;2023-05-17T04:57:00;14.50;99.90
19365;DHT22;9818;48.382;10.850;2023-05-17T04:59:28;14.50;99.90
19365;DHT22;9818;48.382;10.850;2023-05-17T05:01:57;14.50;99.90
19365;DHT22;9818;48.382;10.850;2023-05-17T05:04:26;14.50;99.90
19365;DHT22;9818;48.382;10.850;2023-05-17T05:06:54;14.50;99.90
19365;DHT22;9818;48.382;10.850;2023-05-17T05:09:25;14.50;99.90
19365;DHT22;9818;48.382;10.850;2023-05-17T05:11:54;14.50;99.90
19365;DHT22;9818;48.382;10.850;2023-05-17T05:14:23;14.50;99.90
19365;DHT22;9818;48.382;10.850;2023-05-17T05:16:51;14.50;99.90
19365;DHT22;9818;48.382;10.850;2023-05-17T05:19:20;14.50;99.90
19365;DHT22;9818;48.382;10.850;2023-05-17T05:21:49;14.50;99.90
19365;DHT22;9818;48.382;10.850;2023-05-17T05:24:17;14.50;99.90
19365;DHT22;9818;48.382;10.850;2023-05-17T05:26:48;14.50;99.90
19365;DHT22;9818;48.382;10.850;2023-05-17T05:29:17;14.50;99.90
19365;DHT22;9818;48.382;10.850;2023-05-17T05:31:46;14.50;99.90
19365;DHT22;9818;48.382;10.850;2023-05-17T05:34:14;14.50;99.90
19365;DHT22;9818;48.382;10.850;2023-05-17T05:36:43;14.50;99.90
19365;DHT22;9818;48.382;10.850;2023-05-17T05:39:12;14.50;99.90
19365;DHT22;9818;48.382;10.850;2023-05-17T05:41:40;14.50;99.90
19365;DHT22;9818;48.382;10.850;2023-05-17T05:44:11;14.50;99.90
19365;DHT22;9818;48.382;10.850;2023-05-17T05:46:40;14.50;99.90
19365;DHT22;9818;48.382;10.850;2023-05-17T05:49:09;14.50;99.90
19365;DHT22;9818;48.382;10.850;2023-05-17T05:51:38;14.50;99.90
19365;DHT22;9818;48.382;10.850;2023-05-17T05:54:06;14.50;99.90
19365;DHT22;9818;48.382;10.850;2023-05-17T05:56:35;14.50;99.90
19365;DHT22;9818;48.382;10.850;2023-05-17T05:59:04;14.50;99.90
19365;DHT22;9818;48.382;10.850;2023-05-17T06:01:35;14.50;99.90
19365;DHT22;9818;48.382;10.850;2023-05-17T06:04:04;14.50;99.90
19365;DHT22;9818;48.382;10.850;2023-05-17T06:06:32;14.50;99.90
19365;DHT22;9818;48.382;10.850;2023-05-17T06:09:01;14.40;99.90
19365;DHT22;9818;48.382;10.850;2023-05-17T06:11:31;14.40;99.90
19365;DHT22;9818;48.382;10.850;2023-05-17T06:14:00;14.40;99.90
19365;DHT22;9818;48.382;10.850;2023-05-17T06:16:28;14.40;99.90
19365;DHT22;9818;48.382;10.850;2023-05-17T06:19:02;14.40;99.90
19365;DHT22;9818;48.382;10.850;2023-05-17T06:21:31;14.40;99.90
19365;DHT22;9818;48.382;10.850;2023-05-17T06:23:59;14.40;99.90
19365;DHT22;9818;48.382;10.850;2023-05-17T06:26:29;14.40;99.90
19365;DHT22;9818;48.382;10.850;2023-05-17T06:28:57;14.40;99.90
19365;DHT22;9818;48.382;10.850;2023-05-17T06:31:26;14.40;99.90
19365;DHT22;9818;48.382;10.850;2023-05-17T06:33:55;14.40;99.90
19365;DHT22;9818;48.382;10.850;2023-05-17T06:36:26;14.40;99.90
19365;DHT22;9818;48.382;10.850;2023-05-17T06:38:54;14.40;99.90
19365;DHT22;9818;48.382;10.850;2023-05-17T06:41:23;14.40;99.90
19365;DHT22;9818;48.382;10.850;2023-05-17T06:43:52;14.40;99.90
19365;DHT22;9818;48.382;10.850;2023-05-17T06:46:20;14.40;99.90
19365;DHT22;9818;48.382;10.850;2023-05-17T06:48:49;14.40;99.90
19365;DHT22;9818;48.382;10.850;2023-05-17T06:51:17;14.40;99.90
19365;DHT22;9818;48.382;10.850;2023-05-17T06:53:49;14.40;99.90
19365;DHT22;9818;48.382;10.850;2023-05-17T06:56:17;14.40;99.90
19365;DHT22;9818;48.382;10.850;2023-05-17T06:58:46;14.40;99.90
19365;DHT22;9818;48.382;10.850;2023-05-17T07:01:15;14.40;99.90
19365;DHT22;9818;48.382;10.850;2023-05-17T07:03:45;14.40;99.90
19365;DHT22;9818;48.382;10.850;2023-05-17T07:06:13;14.40;99.90
19365;DHT22;9818;48.382;10.850;2023-05-17T07:08:42;14.40;99.90
19365;DHT22;9818;48.382;10.850;2023-05-17T07:11:13;14.40;99.90
19365;DHT22;9818;48.382;10.850;2023-05-17T07:13:42;14.40;99.90
19365;DHT22;9818;48.382;10.850;2023-05-17T07:16:11;14.40;99.90
19365;DHT22;9818;48.382;10.850;2023-05-17T07:18:39;14.40;99.90
19365;DHT22;9818;48.382;10.850;2023-05-17T07:21:08;14.40;99.90
19365;DHT22;9818;48.382;10.850;2023-05-17T07:23:37;14.40;99.90
19365;DHT22;9818;48.382;10.850;2023-05-17T07:26:05;14.40;99.90
19365;DHT22;9818;48.382;10.850;2023-05-17T07:28:37;14.40;99.90
19365;DHT22;9818;48.382;10.850;2023-05-17T07:31:05;14.40;99.90
19365;DHT22;9818;48.382;10.850;2023-05-17T07:33:34;14.40;99.90
19365;DHT22;9818;48.382;10.850;2023-05-17T07:36:03;14.40;99.90
19365;DHT22;9818;48.382;10.850;2023-05-17T07:38:32;14.40;99.90
19365;DHT22;9818;48.382;10.850;2023-05-17T07:41:02;14.40;99.90
19365;DHT22;9818;48.382;10.850;2023-05-17T07:43:37;14.50;99.90
19365;DHT22;9818;48.382;10.850;2023-05-17T07:46:05;14.50;99.90
19365;DHT22;9818;48.382;10.850;2023-05-17T07:48:34;14.50;99.90
19365;DHT22;9818;48.382;10.850;2023-05-17T07:51:03;14.40;99.90
19365;DHT22;9818;48.382;10.850;2023-05-17T07:53:32;14.50;99.90
19365;DHT22;9818;48.382;10.850;2023-05-17T07:56:00;14.50;99.90
19365;DHT22;9818;48.382;10.850;2023-05-17T07:58:29;14.40;99.90
19365;DHT22;9818;48.382;10.850;2023-05-17T08:01:01;14.50;99.90
19365;DHT22;9818;48.382;10.850;2023-05-17T08:03:30;14.40;99.90
19365;DHT22;9818;48.382;10.850;2023-05-17T08:05:58;14.40;99.90
19365;DHT22;9818;48.382;10.850;2023-05-17T08:08:27;14.40;99.90
19365;DHT22;9818;48.382;10.850;2023-05-17T08:10:56;14.40;99.90
19365;DHT22;9818;48.382;10.850;2023-05-17T08:13:24;14.40;99.90
19365;DHT22;9818;48.382;10.850;2023-05-17T08:15:53;14.40;99.90
19365;DHT22;9818;48.382;10.850;2023-05-17T08:18:26;14.50;99.90
19365;DHT22;9818;48.382;10.850;2023-05-17T08:20:55;14.50;99.90
19365;DHT22;9818;48.382;10.850;2023-05-17T08:23:24;14.50;99.90
19365;DHT22;9818;48.382;10.850;2023-05-17T08:25:53;14.50;99.90
19365;DHT22;9818;48.382;10.850;2023-05-17T08:28:21;14.50;99.90
19365;DHT22;9818;48.382;10.850;2023-05-17T08:30:50;14.50;99.90
19365;DHT22;9818;48.382;10.850;2023-05-17T08:33:19;14.50;99.90
19365;DHT22;9818;48.382;10.850;2023-05-17T08:35:53;14.50;99.90
19365;DHT22;9818;48.382;10.850;2023-05-17T08:38:23;14.50;99.90
19365;DHT22;9818;48.382;10.850;2023-05-17T08:40:52;14.50;99.90
19365;DHT22;9818;48.382;10.850;2023-05-17T08:43:22;14.50;99.90
19365;DHT22;9818;48.382;10.850;2023-05-17T08:45:52;14.50;99.90
19365;DHT22;9818;48.382;10.850;2023-05-17T08:48:22;14.50;99.90
19365;DHT22;9818;48.382;10.850;2023-05-17T08:50:55;14.50;99.90
19365;DHT22;9818;48.382;10.850;2023-05-17T08:53:24;14.50;99.90
19365;DHT22;9818;48.382;10.850;2023-05-17T08:55:57;14.50;99.90
19365;DHT22;9818;48.382;10.850;2023-05-17T08:58:29;14.50;99.90
19365;DHT22;9818;48.382;10.850;2023-05-17T09:00:59;14.50;99.90
19365;DHT22;9818;48.382;10.850;2023-05-17T09:03:28;14.50;99.90
19365;DHT22;9818;48.382;10.850;2023-05-17T09:06:00;14.50;99.90
19365;DHT22;9818;48.382;10.850;2023-05-17T09:08:29;14.50;99.90
19365;DHT22;9818;48.382;10.850;2023-05-17T09:10:58;14.50;99.90
19365;DHT22;9818;48.382;10.850;2023-05-17T09:13:27;14.50;99.90
19365;DHT22;9818;48.382;10.850;2023-05-17T09:15:56;14.50;99.90
19365;DHT22;9818;48.382;10.850;2023-05-17T09:18:29;14.50;99.90
19365;DHT22;9818;48.382;10.850;2023-05-17T09:21:03;14.50;99.90
19365;DHT22;9818;48.382;10.850;2023-05-17T09:23:35;14.50;99.90
19365;DHT22;9818;48.382;10.850;2023-05-17T09:26:05;14.50;99.90
19365;DHT22;9818;48.382;10.850;2023-05-17T09:28:38;14.50;99.90
19365;DHT22;9818;48.382;10.850;2023-05-17T09:31:08;14.50;99.90
19365;DHT22;9818;48.382;10.850;2023-05-17T09:33:42;14.50;99.90
19365;DHT22;9818;48.382;10.850;2023-05-17T09:36:18;14.50;99.90
19365;DHT22;9818;48.382;10.850;2023-05-17T09:38:57;14.50;99.90
19365;DHT22;9818;48.382;10.850;2023-05-17T09:41:27;14.50;99.90
19365;DHT22;9818;48.382;10.850;2023-05-17T09:43:58;14.50;99.90
19365;DHT22;9818;48.382;10.850;2023-05-17T09:46:27;14.50;99.90
19365;DHT22;9818;48.382;10.850;2023-05-17T09:48:56;14.50;99.90
19365;DHT22;9818;48.382;10.850;2023-05-17T09:51:35;14.50;99.90
19365;DHT22;9818;48.382;10.850;2023-05-17T09:54:05;14.50;99.90
19365;DHT22;9818;48.382;10.850;2023-05-17T09:56:35;14.50;99.90
19365;DHT22;9818;48.382;10.850;2023-05-17T09:59:10;14.50;99.90
19365;DHT22;9818;48.382;10.850;2023-05-17T10:01:40;14.50;99.90
19365;DHT22;9818;48.382;10.850;2023-05-17T10:04:10;14.50;99.90
19365;DHT22;9818;48.382;10.850;2023-05-17T10:06:48;14.50;99.90
19365;DHT22;9818;48.382;10.850;2023-05-17T10:09:21;14.50;99.90
19365;DHT22;9818;48.382;10.850;2023-05-17T10:11:51;14.50;99.90
19365;DHT22;9818;48.382;10.850;2023-05-17T10:14:25;14.50;99.90
19365;DHT22;9818;48.382;10.850;2023-05-17T10:16:56;14.50;99.90
19365;DHT22;9818;48.382;10.850;2023-05-17T10:19:26;14.50;99.90
19365;DHT22;9818;48.382;10.850;2023-05-17T10:21:57;14.50;99.90
19365;DHT22;9818;48.382;10.850;2023-05-17T10:24:27;14.50;99.90
19365;DHT22;9818;48.382;10.850;2023-05-17T10:26:57;14.50;99.90
19365;DHT22;9818;48.382;10.850;2023-05-17T10:29:27;14.50;99.90
19365;DHT22;9818;48.382;10.850;2023-05-17T10:31:57;14.50;99.90
19365;DHT22;9818;48.382;10.850;2023-05-17T10:34:27;14.50;99.90
19365;DHT22;9818;48.382;10.850;2023-05-17T10:36:59;14.50;99.90
19365;DHT22;9818;48.382;10.850;2023-05-17T10:39:29;14.50;99.90
19365;DHT22;9818;48.382;10.850;2023-05-17T10:42:01;14.40;99.90
19365;DHT22;9818;48.382;10.850;2023-05-17T10:44:32;14.40;99.90
19365;DHT22;9818;48.382;10.850;2023-05-17T10:47:03;14.40;99.90
19365;DHT22;9818;48.382;10.850;2023-05-17T10:49:36;14.50;99.90
19365;DHT22;9818;48.382;10.850;2023-05-17T10:52:16;14.50;99.90
19365;DHT22;9818;48.382;10.850;2023-05-17T10:54:47;14.40;99.90
19365;DHT22;9818;48.382;10.850;2023-05-17T10:57:19;14.40;99.90
19365;DHT22;9818;48.382;10.850;2023-05-17T10:59:59;14.40;99.90
19365;DHT22;9818;48.382;10.850;2023-05-17T11:02:30;14.40;99.90
19365;DHT22;9818;48.382;10.850;2023-05-17T11:04:59;14.40;99.90
19365;DHT22;9818;48.382;10.850;2023-05-17T11:07:31;14.40;99.90
19365;DHT22;9818;48.382;10.850;2023-05-17T11:10:06;14.40;99.90
19365;DHT22;9818;48.382;10.850;2023-05-17T11:12:40;14.40;99.90
19365;DHT22;9818;48.382;10.850;2023-05-17T11:15:10;14.40;99.90
19365;DHT22;9818;48.382;10.850;2023-05-17T11:17:57;14.40;99.90
19365;DHT22;9818;48.382;10.850;2023-05-17T11:20:33;14.40;99.90
19365;DHT22;9818;48.382;10.850;2023-05-17T11:23:15;14.40;99.90
19365;DHT22;9818;48.382;10.850;2023-05-17T11:25:44;14.40;99.90
19365;DHT22;9818;48.382;10.850;2023-05-17T11:28:18;14.40;99.90
19365;DHT22;9818;48.382;10.850;2023-05-17T11:30:47;14.40;99.90
19365;DHT22;9818;48.382;10.850;2023-05-17T11:33:19;14.40;99.90
19365;DHT22;9818;48.382;10.850;2023-05-17T11:35:53;14.40;99.90
19365;DHT22;9818;48.382;10.850;2023-05-17T11:38:26;14.40;99.90
19365;DHT22;9818;48.382;10.850;2023-05-17T11:40:57;14.40;99.90
19365;DHT22;9818;48.382;10.850;2023-05-17T11:43:26;14.40;99.90
19365;DHT22;9818;48.382;10.850;2023-05-17T11:45:56;14.40;99.90
19365;DHT22;9818;48.382;10.850;2023-05-17T11:48:26;14.40;99.90
19365;DHT22;9818;48.382;10.850;2023-05-17T11:50:57;14.40;99.90
19365;DHT22;9818;48.382;10.850;2023-05-17T11:53:30;14.40;99.90
19365;DHT22;9818;48.382;10.850;2023-05-17T11:56:01;14.40;99.90
19365;DHT22;9818;48.382;10.850;2023-05-17T11:58:31;14.40;99.90
19365;DHT22;9818;48.382;10.850;2023-05-17T12:01:00;14.40;99.90
19365;DHT22;9818;48.382;10.850;2023-05-17T12:03:30;14.40;99.90
19365;DHT22;9818;48.382;10.850;2023-05-17T12:06:04;14.40;99.90
19365;DHT22;9818;48.382;10.850;2023-05-17T12:08:38;14.40;99.90
19365;DHT22;9818;48.382;10.850;2023-05-17T12:11:07;14.40;99.90
19365;DHT22;9818;48.382;10.850;2023-05-17T12:13:38;14.40;99.90
19365;DHT22;9818;48.382;10.850;2023-05-17T12:16:09;14.40;99.90
19365;DHT22;9818;48.382;10.850;2023-05-17T12:18:40;14.40;99.90
19365;DHT22;9818;48.382;10.850;2023-05-17T12:21:11;14.40;99.90
19365;DHT22;9818;48.382;10.850;2023-05-17T12:23:44;14.40;99.90
19365;DHT22;9818;48.382;10.850;2023-05-17T12:26:14;14.40;99.90
19365;DHT22;9818;48.382;10.850;2023-05-17T12:28:45;14.30;99.90
19365;DHT22;9818;48.382;10.850;2023-05-17T12:31:20;14.10;99.90
19365;DHT22;9818;48.382;10.850;2023-05-17T12:33:49;14.10;99.90
19365;DHT22;9818;48.382;10.850;2023-05-17T12:36:18;14.10;99.90
19365;DHT22;9818;48.382;10.850;2023-05-17T12:38:51;14.10;99.90
19365;DHT22;9818;48.382;10.850;2023-05-17T12:41:21;14.10;99.90
19365;DHT22;9818;48.382;10.850;2023-05-17T12:43:50;14.00;99.90
19365;DHT22;9818;48.382;10.850;2023-05-17T12:46:21;14.00;99.90
19365;DHT22;9818;48.382;10.850;2023-05-17T12:48:51;13.90;99.90
19365;DHT22;9818;48.382;10.850;2023-05-17T12:51:21;13.90;99.90
19365;DHT22;9818;48.382;10.850;2023-05-17T12:53:53;14.00;99.90
19365;DHT22;9818;48.382;10.850;2023-05-17T12:56:27;14.00;99.90
19365;DHT22;9818;48.382;10.850;2023-05-17T12:59:09;14.00;99.90
19365;DHT22;9818;48.382;10.850;2023-05-17T13:01:42;14.10;99.90
19365;DHT22;9818;48.382;10.850;2023-05-17T13:04:12;14.10;99.90
19365;DHT22;9818;48.382;10.850;2023-05-17T13:06:45;14.10;99.90
19365;DHT22;9818;48.382;10.850;2023-05-17T13:09:17;14.10;99.90
19365;DHT22;9818;48.382;10.850;2023-05-17T13:11:50;14.10;99.90
19365;DHT22;9818;48.382;10.850;2023-05-17T13:14:34;14.10;99.90
19365;DHT22;9818;48.382;10.850;2023-05-17T13:17:04;14.00;99.90
19365;DHT22;9818;48.382;10.850;2023-05-17T13:19:33;14.00;99.90
19365;DHT22;9818;48.382;10.850;2023-05-17T13:22:03;14.00;99.90
19365;DHT22;9818;48.382;10.850;2023-05-17T13:24:36;14.10;99.90
19365;DHT22;9818;48.382;10.850;2023-05-17T13:27:05;14.10;99.90
19365;DHT22;9818;48.382;10.850;2023-05-17T13:29:35;14.10;99.90
19365;DHT22;9818;48.382;10.850;2023-05-17T13:32:05;14.10;99.90
19365;DHT22;9818;48.382;10.850;2023-05-17T13:34:34;14.00;99.90
19365;DHT22;9818;48.382;10.850;2023-05-17T13:37:03;14.00;99.90
19365;DHT22;9818;48.382;10.850;2023-05-17T13:39:35;14.10;99.90
19365;DHT22;9818;48.382;10.850;2023-05-17T13:42:04;14.10;99.90
19365;DHT22;9818;48.382;10.850;2023-05-17T13:44:33;14.00;99.90
19365;DHT22;9818;48.382;10.850;2023-05-17T13:47:03;14.00;99.90
19365;DHT22;9818;48.382;10.850;2023-05-17T13:49:31;13.90;99.90
19365;DHT22;9818;48.382;10.850;2023-05-17T13:52:00;13.90;99.90
19365;DHT22;9818;48.382;10.850;2023-05-17T13:54:36;14.00;99.90
19365;DHT22;9818;48.382;10.850;2023-05-17T13:57:05;14.00;99.90
19365;DHT22;9818;48.382;10.850;2023-05-17T13:59:34;14.00;99.90
19365;DHT22;9818;48.382;10.850;2023-05-17T14:02:02;14.00;99.90
19365;DHT22;9818;48.382;10.850;2023-05-17T14:04:31;14.00;99.90
19365;DHT22;9818;48.382;10.850;2023-05-17T14:07:00;14.10;99.90
19365;DHT22;9818;48.382;10.850;2023-05-17T14:09:29;14.00;99.90
19365;DHT22;9818;48.382;10.850;2023-05-17T14:12:01;14.10;99.90
19365;DHT22;9818;48.382;10.850;2023-05-17T14:14:30;14.00;99.90
19365;DHT22;9818;48.382;10.850;2023-05-17T14:16:59;14.00;99.90
19365;DHT22;9818;48.382;10.850;2023-05-17T14:19:28;13.90;99.90
19365;DHT22;9818;48.382;10.850;2023-05-17T14:21:57;13.90;99.90
19365;DHT22;9818;48.382;10.850;2023-05-17T14:24:25;13.90;99.90
19365;DHT22;9818;48.382;10.850;2023-05-17T14:26:54;13.90;99.90
19365;DHT22;9818;48.382;10.850;2023-05-17T14:29:26;13.80;99.90
19365;DHT22;9818;48.382;10.850;2023-05-17T14:31:55;13.80;99.90
19365;DHT22;9818;48.382;10.850;2023-05-17T14:34:23;13.80;99.90
19365;DHT22;9818;48.382;10.850;2023-05-17T14:36:52;13.80;99.90
19365;DHT22;9818;48.382;10.850;2023-05-17T14:39:21;13.90;99.90
19365;DHT22;9818;48.382;10.850;2023-05-17T14:41:49;13.90;99.90
19365;DHT22;9818;48.382;10.850;2023-05-17T14:44:18;13.90;99.90
19365;DHT22;9818;48.382;10.850;2023-05-17T14:46:49;13.80;99.90
19365;DHT22;9818;48.382;10.850;2023-05-17T14:49:18;13.90;99.90
19365;DHT22;9818;48.382;10.850;2023-05-17T14:51:46;13.90;99.90
19365;DHT22;9818;48.382;10.850;2023-05-17T14:54:15;13.80;99.90
19365;DHT22;9818;48.382;10.850;2023-05-17T14:56:44;13.80;99.90
19365;DHT22;9818;48.382;10.850;2023-05-17T14:59:12;13.70;99.90
19365;DHT22;9818;48.382;10.850;2023-05-17T15:01:41;13.70;99.90
19365;DHT22;9818;48.382;10.850;2023-05-17T15:04:12;13.70;99.90
19365;DHT22;9818;48.382;10.850;2023-05-17T15:06:41;13.70;99.90
19365;DHT22;9818;48.382;10.850;2023-05-17T15:09:10;13.70;99.90
19365;DHT22;9818;48.382;10.850;2023-05-17T15:11:42;13.70;99.90
19365;DHT22;9818;48.382;10.850;2023-05-17T15:14:11;13.70;99.90
19365;DHT22;9818;48.382;10.850;2023-05-17T15:16:43;13.70;99.90
19365;DHT22;9818;48.382;10.850;2023-05-17T15:19:14;13.70;99.90
19365;DHT22;9818;48.382;10.850;2023-05-17T15:21:44;13.70;99.90
19365;DHT22;9818;48.382;10.850;2023-05-17T15:24:13;13.70;99.90
19365;DHT22;9818;48.382;10.850;2023-05-17T15:26:42;13.80;99.90
19365;DHT22;9818;48.382;10.850;2023-05-17T15:29:10;13.90;99.90
19365;DHT22;9818;48.382;10.850;2023-05-17T15:31:39;14.00;99.90
19365;DHT22;9818;48.382;10.850;2023-05-17T15:34:08;14.00;99.90
19365;DHT22;9818;48.382;10.850;2023-05-17T15:36:39;14.10;99.90
19365;DHT22;9818;48.382;10.850;2023-05-17T15:39:07;14.10;99.90
19365;DHT22;9818;48.382;10.850;2023-05-17T15:41:36;14.10;99.90
19365;DHT22;9818;48.382;10.850;2023-05-17T15:44:05;14.10;99.90
19365;DHT22;9818;48.382;10.850;2023-05-17T15:46:34;14.10;99.90
19365;DHT22;9818;48.382;10.850;2023-05-17T15:49:03;14.10;99.90